sensor_id;sensor_type;location;lat;lon;timestamp;P1;durP1;ratioP1;P2;durP2;ratioP2
7657;SDS011;8462;53.156;8.220;2023-02-15T00:01:06;24.40;;;15.87;;
7657;SDS011;8462;53.156;8.220;2023-02-15T00:03:33;31.63;;;15.97;;
7657;SDS011;8462;53.156;8.220;2023-02-15T00:06:02;41.47;;;16.83;;
7657;SDS011;8462;53.156;8.220;2023-02-15T00:08:31;35.07;;;16.53;;
7657;SDS011;8462;53.156;8.220;2023-02-15T00:11:05;31.87;;;14.97;;
7657;SDS011;8462;53.156;8.220;2023-02-15T00:13:32;29.50;;;14.80;;
7657;SDS011;8462;53.156;8.220;2023-02-15T00:16:01;32.93;;;15.57;;
7657;SDS011;8462;53.156;8.220;2023-02-15T00:18:28;29.77;;;14.30;;
7657;SDS011;8462;53.156;8.220;2023-02-15T00:20:55;27.87;;;13.90;;
7657;SDS011;8462;53.156;8.220;2023-02-15T00:23:22;32.03;;;13.23;;
7657;SDS011;8462;53.156;8.220;2023-02-15T00:25:51;24.07;;;12.83;;
7657;SDS011;8462;53.156;8.220;2023-02-15T00:28:18;23.50;;;12.80;;
7657;SDS011;8462;53.156;8.220;2023-02-15T00:30:45;23.40;;;13.47;;
7657;SDS011;8462;53.156;8.220;2023-02-15T00:33:12;33.70;;;12.33;;
7657;SDS011;8462;53.156;8.220;2023-02-15T00:35:39;20.77;;;11.00;;
7657;SDS011;8462;53.156;8.220;2023-02-15T00:38:06;21.97;;;11.23;;
7657;SDS011;8462;53.156;8.220;2023-02-15T00:40:33;22.57;;;12.10;;
7657;SDS011;8462;53.156;8.220;2023-02-15T00:43:01;25.47;;;12.03;;
7657;SDS011;8462;53.156;8.220;2023-02-15T00:45:28;35.77;;;12.80;;
7657;SDS011;8462;53.156;8.220;2023-02-15T00:47:55;20.67;;;9.70;;
7657;SDS011;8462;53.156;8.220;2023-02-15T00:50:23;19.73;;;9.83;;
7657;SDS011;8462;53.156;8.220;2023-02-15T00:52:50;17.73;;;9.33;;
7657;SDS011;8462;53.156;8.220;2023-02-15T00:55:16;30.93;;;10.93;;
7657;SDS011;8462;53.156;8.220;2023-02-15T00:57:43;32.07;;;12.00;;
7657;SDS011;8462;53.156;8.220;2023-02-15T01:00:12;32.07;;;10.43;;
7657;SDS011;8462;53.156;8.220;2023-02-15T01:02:40;56.57;;;12.57;;
7657;SDS011;8462;53.156;8.220;2023-02-15T01:05:06;32.17;;;10.73;;
7657;SDS011;8462;53.156;8.220;2023-02-15T01:07:33;18.23;;;9.83;;
7657;SDS011;8462;53.156;8.220;2023-02-15T01:10:00;14.73;;;8.63;;
7657;SDS011;8462;53.156;8.220;2023-02-15T01:12:27;16.97;;;9.03;;
7657;SDS011;8462;53.156;8.220;2023-02-15T01:14:54;15.20;;;9.97;;
7657;SDS011;8462;53.156;8.220;2023-02-15T01:17:22;29.33;;;9.80;;
7657;SDS011;8462;53.156;8.220;2023-02-15T01:19:49;39.70;;;10.17;;
7657;SDS011;8462;53.156;8.220;2023-02-15T01:22:18;23.63;;;10.83;;
7657;SDS011;8462;53.156;8.220;2023-02-15T01:24:45;14.87;;;8.73;;
7657;SDS011;8462;53.156;8.220;2023-02-15T01:27:14;19.97;;;9.13;;
7657;SDS011;8462;53.156;8.220;2023-02-15T01:29:42;30.50;;;9.73;;
7657;SDS011;8462;53.156;8.220;2023-02-15T01:32:09;20.00;;;9.27;;
7657;SDS011;8462;53.156;8.220;2023-02-15T01:34:37;27.80;;;10.33;;
7657;SDS011;8462;53.156;8.220;2023-02-15T01:37:04;39.83;;;10.57;;
7657;SDS011;8462;53.156;8.220;2023-02-15T01:39:31;31.67;;;10.00;;
7657;SDS011;8462;53.156;8.220;2023-02-15T01:41:58;21.13;;;9.40;;
7657;SDS011;8462;53.156;8.220;2023-02-15T01:47:23;13.77;;;8.33;;
7657;SDS011;8462;53.156;8.220;2023-02-15T01:49:59;16.70;;;8.40;;
7657;SDS011;8462;53.156;8.220;2023-02-15T01:52:31;17.70;;;8.83;;
7657;SDS011;8462;53.156;8.220;2023-02-15T01:55:02;17.47;;;9.07;;
7657;SDS011;8462;53.156;8.220;2023-02-15T01:57:30;18.70;;;9.33;;
7657;SDS011;8462;53.156;8.220;2023-02-15T01:59:58;19.73;;;10.03;;
7657;SDS011;8462;53.156;8.220;2023-02-15T02:02:37;14.00;;;8.37;;
7657;SDS011;8462;53.156;8.220;2023-02-15T02:05:07;22.77;;;9.30;;
7657;SDS011;8462;53.156;8.220;2023-02-15T02:07:34;20.90;;;10.77;;
7657;SDS011;8462;53.156;8.220;2023-02-15T02:10:04;14.00;;;9.40;;
7657;SDS011;8462;53.156;8.220;2023-02-15T02:12:33;18.07;;;9.20;;
7657;SDS011;8462;53.156;8.220;2023-02-15T02:15:02;15.40;;;8.97;;
7657;SDS011;8462;53.156;8.220;2023-02-15T02:17:32;16.40;;;9.73;;
7657;SDS011;8462;53.156;8.220;2023-02-15T02:23:10;22.73;;;10.10;;
7657;SDS011;8462;53.156;8.220;2023-02-15T02:26:07;20.13;;;10.40;;
7657;SDS011;8462;53.156;8.220;2023-02-15T02:29:17;22.70;;;10.67;;
7657;SDS011;8462;53.156;8.220;2023-02-15T02:32:14;24.57;;;10.20;;
7657;SDS011;8462;53.156;8.220;2023-02-15T02:35:07;23.20;;;11.57;;
7657;SDS011;8462;53.156;8.220;2023-02-15T02:37:41;25.17;;;11.03;;
7657;SDS011;8462;53.156;8.220;2023-02-15T02:40:18;20.17;;;9.53;;
7657;SDS011;8462;53.156;8.220;2023-02-15T02:42:49;22.63;;;9.90;;
7657;SDS011;8462;53.156;8.220;2023-02-15T02:45:22;22.03;;;9.60;;
7657;SDS011;8462;53.156;8.220;2023-02-15T02:47:52;17.27;;;9.10;;
7657;SDS011;8462;53.156;8.220;2023-02-15T02:50:27;19.97;;;8.83;;
7657;SDS011;8462;53.156;8.220;2023-02-15T02:52:56;20.80;;;8.83;;
7657;SDS011;8462;53.156;8.220;2023-02-15T02:55:26;21.30;;;9.57;;
7657;SDS011;8462;53.156;8.220;2023-02-15T02:57:57;21.10;;;8.83;;
7657;SDS011;8462;53.156;8.220;2023-02-15T03:00:31;19.90;;;9.83;;
7657;SDS011;8462;53.156;8.220;2023-02-15T03:03:03;28.97;;;10.37;;
7657;SDS011;8462;53.156;8.220;2023-02-15T03:05:34;29.23;;;11.47;;
7657;SDS011;8462;53.156;8.220;2023-02-15T03:08:05;17.77;;;9.70;;
7657;SDS011;8462;53.156;8.220;2023-02-15T03:10:35;22.40;;;11.33;;
7657;SDS011;8462;53.156;8.220;2023-02-15T03:13:04;21.00;;;10.57;;
7657;SDS011;8462;53.156;8.220;2023-02-15T03:15:33;22.20;;;10.23;;
7657;SDS011;8462;53.156;8.220;2023-02-15T03:18:16;33.03;;;11.00;;
7657;SDS011;8462;53.156;8.220;2023-02-15T03:20:47;29.27;;;10.47;;
7657;SDS011;8462;53.156;8.220;2023-02-15T03:23:18;19.97;;;9.47;;
7657;SDS011;8462;53.156;8.220;2023-02-15T03:25:48;23.33;;;9.83;;
7657;SDS011;8462;53.156;8.220;2023-02-15T03:28:23;23.73;;;10.60;;
7657;SDS011;8462;53.156;8.220;2023-02-15T03:30:56;20.90;;;9.80;;
7657;SDS011;8462;53.156;8.220;2023-02-15T03:33:26;19.13;;;9.60;;
7657;SDS011;8462;53.156;8.220;2023-02-15T03:35:57;19.67;;;9.73;;
7657;SDS011;8462;53.156;8.220;2023-02-15T03:38:29;19.50;;;10.07;;
7657;SDS011;8462;53.156;8.220;2023-02-15T03:41:02;21.47;;;9.77;;
7657;SDS011;8462;53.156;8.220;2023-02-15T03:43:38;24.07;;;11.27;;
7657;SDS011;8462;53.156;8.220;2023-02-15T03:46:12;27.80;;;10.60;;
7657;SDS011;8462;53.156;8.220;2023-02-15T03:48:47;29.17;;;11.83;;
7657;SDS011;8462;53.156;8.220;2023-02-15T03:51:20;29.67;;;12.20;;
7657;SDS011;8462;53.156;8.220;2023-02-15T03:54:02;23.50;;;11.80;;
7657;SDS011;8462;53.156;8.220;2023-02-15T03:56:31;21.97;;;10.90;;
7657;SDS011;8462;53.156;8.220;2023-02-15T03:59:00;32.83;;;12.83;;
7657;SDS011;8462;53.156;8.220;2023-02-15T04:01:47;23.40;;;10.37;;
7657;SDS011;8462;53.156;8.220;2023-02-15T04:04:25;26.07;;;10.67;;
7657;SDS011;8462;53.156;8.220;2023-02-15T04:06:58;26.17;;;10.63;;
7657;SDS011;8462;53.156;8.220;2023-02-15T04:09:25;26.00;;;11.67;;
7657;SDS011;8462;53.156;8.220;2023-02-15T04:12:10;29.30;;;10.97;;
7657;SDS011;8462;53.156;8.220;2023-02-15T04:14:37;22.93;;;11.50;;
7657;SDS011;8462;53.156;8.220;2023-02-15T04:17:21;25.67;;;11.27;;
7657;SDS011;8462;53.156;8.220;2023-02-15T04:19:48;22.13;;;10.47;;
7657;SDS011;8462;53.156;8.220;2023-02-15T04:22:34;29.17;;;10.40;;
7657;SDS011;8462;53.156;8.220;2023-02-15T04:25:18;33.00;;;10.80;;
7657;SDS011;8462;53.156;8.220;2023-02-15T04:27:46;20.03;;;10.00;;
7657;SDS011;8462;53.156;8.220;2023-02-15T04:30:15;26.37;;;11.83;;
7657;SDS011;8462;53.156;8.220;2023-02-15T04:32:44;30.63;;;12.30;;
7657;SDS011;8462;53.156;8.220;2023-02-15T04:35:11;24.23;;;12.07;;
7657;SDS011;8462;53.156;8.220;2023-02-15T04:37:39;26.70;;;12.13;;
7657;SDS011;8462;53.156;8.220;2023-02-15T04:40:07;23.00;;;12.93;;
7657;SDS011;8462;53.156;8.220;2023-02-15T04:42:35;23.17;;;12.37;;
7657;SDS011;8462;53.156;8.220;2023-02-15T04:45:02;20.83;;;10.93;;
7657;SDS011;8462;53.156;8.220;2023-02-15T04:47:29;22.83;;;11.47;;
7657;SDS011;8462;53.156;8.220;2023-02-15T04:49:56;28.93;;;11.40;;
7657;SDS011;8462;53.156;8.220;2023-02-15T04:52:23;23.77;;;10.43;;
7657;SDS011;8462;53.156;8.220;2023-02-15T04:54:51;19.43;;;10.93;;
7657;SDS011;8462;53.156;8.220;2023-02-15T04:57:18;24.67;;;10.87;;
7657;SDS011;8462;53.156;8.220;2023-02-15T04:59:45;16.50;;;11.10;;
7657;SDS011;8462;53.156;8.220;2023-02-15T05:02:12;27.53;;;11.93;;
7657;SDS011;8462;53.156;8.220;2023-02-15T05:04:39;16.47;;;10.30;;
7657;SDS011;8462;53.156;8.220;2023-02-15T05:07:06;18.53;;;9.57;;
7657;SDS011;8462;53.156;8.220;2023-02-15T05:09:33;22.23;;;10.17;;
7657;SDS011;8462;53.156;8.220;2023-02-15T05:12:01;18.73;;;9.63;;
7657;SDS011;8462;53.156;8.220;2023-02-15T05:14:28;17.53;;;9.83;;
7657;SDS011;8462;53.156;8.220;2023-02-15T05:16:55;22.63;;;9.27;;
7657;SDS011;8462;53.156;8.220;2023-02-15T05:19:24;21.57;;;10.57;;
7657;SDS011;8462;53.156;8.220;2023-02-15T05:21:51;17.80;;;10.50;;
7657;SDS011;8462;53.156;8.220;2023-02-15T05:24:18;17.50;;;11.03;;
7657;SDS011;8462;53.156;8.220;2023-02-15T05:27:04;19.70;;;10.77;;
7657;SDS011;8462;53.156;8.220;2023-02-15T05:29:48;18.10;;;10.43;;
7657;SDS011;8462;53.156;8.220;2023-02-15T05:32:15;18.57;;;10.20;;
7657;SDS011;8462;53.156;8.220;2023-02-15T05:34:42;19.17;;;10.60;;
7657;SDS011;8462;53.156;8.220;2023-02-15T05:37:09;17.30;;;9.87;;
7657;SDS011;8462;53.156;8.220;2023-02-15T05:39:35;18.60;;;11.20;;
7657;SDS011;8462;53.156;8.220;2023-02-15T05:42:04;17.80;;;9.83;;
7657;SDS011;8462;53.156;8.220;2023-02-15T05:44:31;16.40;;;10.27;;
7657;SDS011;8462;53.156;8.220;2023-02-15T05:46:57;13.17;;;8.57;;
7657;SDS011;8462;53.156;8.220;2023-02-15T05:49:25;17.20;;;9.77;;
7657;SDS011;8462;53.156;8.220;2023-02-15T05:51:52;20.43;;;10.13;;
7657;SDS011;8462;53.156;8.220;2023-02-15T05:54:19;16.80;;;10.57;;
7657;SDS011;8462;53.156;8.220;2023-02-15T05:56:46;15.57;;;9.50;;
7657;SDS011;8462;53.156;8.220;2023-02-15T05:59:14;15.70;;;10.30;;
7657;SDS011;8462;53.156;8.220;2023-02-15T06:01:41;16.00;;;10.23;;
7657;SDS011;8462;53.156;8.220;2023-02-15T06:04:08;15.73;;;9.70;;
7657;SDS011;8462;53.156;8.220;2023-02-15T06:06:35;17.07;;;9.97;;
7657;SDS011;8462;53.156;8.220;2023-02-15T06:09:02;18.73;;;10.87;;
7657;SDS011;8462;53.156;8.220;2023-02-15T06:11:29;16.30;;;10.07;;
7657;SDS011;8462;53.156;8.220;2023-02-15T06:13:56;14.73;;;9.70;;
7657;SDS011;8462;53.156;8.220;2023-02-15T06:16:24;16.37;;;9.40;;
7657;SDS011;8462;53.156;8.220;2023-02-15T06:18:51;17.93;;;10.07;;
7657;SDS011;8462;53.156;8.220;2023-02-15T06:21:18;17.67;;;10.40;;
7657;SDS011;8462;53.156;8.220;2023-02-15T06:23:45;19.13;;;10.10;;
7657;SDS011;8462;53.156;8.220;2023-02-15T06:26:11;17.97;;;10.87;;
7657;SDS011;8462;53.156;8.220;2023-02-15T06:28:38;17.63;;;9.90;;
7657;SDS011;8462;53.156;8.220;2023-02-15T06:31:06;17.80;;;10.37;;
7657;SDS011;8462;53.156;8.220;2023-02-15T06:33:34;16.73;;;11.27;;
7657;SDS011;8462;53.156;8.220;2023-02-15T06:36:01;17.33;;;10.80;;
7657;SDS011;8462;53.156;8.220;2023-02-15T06:38:28;20.20;;;12.87;;
7657;SDS011;8462;53.156;8.220;2023-02-15T06:40:55;19.93;;;11.73;;
7657;SDS011;8462;53.156;8.220;2023-02-15T06:43:22;19.57;;;11.10;;
7657;SDS011;8462;53.156;8.220;2023-02-15T06:45:49;18.00;;;10.83;;
7657;SDS011;8462;53.156;8.220;2023-02-15T06:48:16;19.50;;;11.43;;
7657;SDS011;8462;53.156;8.220;2023-02-15T06:50:47;19.07;;;12.70;;
7657;SDS011;8462;53.156;8.220;2023-02-15T06:53:15;20.50;;;12.07;;
7657;SDS011;8462;53.156;8.220;2023-02-15T06:55:42;20.13;;;11.67;;
7657;SDS011;8462;53.156;8.220;2023-02-15T06:58:09;18.60;;;11.53;;
7657;SDS011;8462;53.156;8.220;2023-02-15T07:00:35;19.47;;;11.77;;
7657;SDS011;8462;53.156;8.220;2023-02-15T07:03:02;20.67;;;13.03;;
7657;SDS011;8462;53.156;8.220;2023-02-15T07:05:32;20.43;;;11.20;;
7657;SDS011;8462;53.156;8.220;2023-02-15T07:08:01;21.87;;;12.60;;
7657;SDS011;8462;53.156;8.220;2023-02-15T07:10:27;18.80;;;11.07;;
7657;SDS011;8462;53.156;8.220;2023-02-15T07:12:55;20.47;;;12.27;;
7657;SDS011;8462;53.156;8.220;2023-02-15T07:15:21;20.80;;;14.23;;
7657;SDS011;8462;53.156;8.220;2023-02-15T07:17:48;27.40;;;12.77;;
7657;SDS011;8462;53.156;8.220;2023-02-15T07:20:15;23.17;;;13.43;;
7657;SDS011;8462;53.156;8.220;2023-02-15T07:22:44;23.13;;;12.63;;
7657;SDS011;8462;53.156;8.220;2023-02-15T07:25:13;21.53;;;11.47;;
7657;SDS011;8462;53.156;8.220;2023-02-15T07:27:40;19.77;;;12.63;;
7657;SDS011;8462;53.156;8.220;2023-02-15T07:30:08;25.30;;;12.63;;
7657;SDS011;8462;53.156;8.220;2023-02-15T07:32:36;20.23;;;11.93;;
7657;SDS011;8462;53.156;8.220;2023-02-15T07:35:23;18.20;;;12.27;;
7657;SDS011;8462;53.156;8.220;2023-02-15T07:37:50;21.57;;;12.47;;
7657;SDS011;8462;53.156;8.220;2023-02-15T07:40:21;25.50;;;12.77;;
7657;SDS011;8462;53.156;8.220;2023-02-15T07:42:48;21.07;;;12.97;;
7657;SDS011;8462;53.156;8.220;2023-02-15T07:45:17;22.67;;;12.97;;
7657;SDS011;8462;53.156;8.220;2023-02-15T07:47:44;22.33;;;13.27;;
7657;SDS011;8462;53.156;8.220;2023-02-15T07:50:11;23.70;;;14.37;;
7657;SDS011;8462;53.156;8.220;2023-02-15T07:52:38;20.07;;;13.43;;
7657;SDS011;8462;53.156;8.220;2023-02-15T07:55:05;22.90;;;14.47;;
7657;SDS011;8462;53.156;8.220;2023-02-15T07:57:35;21.90;;;13.63;;
7657;SDS011;8462;53.156;8.220;2023-02-15T08:00:02;25.03;;;14.10;;
7657;SDS011;8462;53.156;8.220;2023-02-15T08:02:37;22.50;;;12.83;;
7657;SDS011;8462;53.156;8.220;2023-02-15T08:05:05;24.37;;;14.37;;
7657;SDS011;8462;53.156;8.220;2023-02-15T08:07:32;23.63;;;13.37;;
7657;SDS011;8462;53.156;8.220;2023-02-15T08:09:59;21.03;;;13.83;;
7657;SDS011;8462;53.156;8.220;2023-02-15T08:12:26;22.80;;;14.43;;
7657;SDS011;8462;53.156;8.220;2023-02-15T08:14:55;22.43;;;14.97;;
7657;SDS011;8462;53.156;8.220;2023-02-15T08:17:22;21.93;;;13.63;;
7657;SDS011;8462;53.156;8.220;2023-02-15T08:19:49;27.17;;;16.00;;
7657;SDS011;8462;53.156;8.220;2023-02-15T08:22:16;26.67;;;17.13;;
7657;SDS011;8462;53.156;8.220;2023-02-15T08:24:43;29.93;;;16.40;;
7657;SDS011;8462;53.156;8.220;2023-02-15T08:27:10;29.93;;;17.30;;
7657;SDS011;8462;53.156;8.220;2023-02-15T08:29:37;25.70;;;16.47;;
7657;SDS011;8462;53.156;8.220;2023-02-15T08:32:08;25.60;;;17.30;;
7657;SDS011;8462;53.156;8.220;2023-02-15T08:34:38;28.53;;;16.57;;
7657;SDS011;8462;53.156;8.220;2023-02-15T08:37:06;25.63;;;16.10;;
7657;SDS011;8462;53.156;8.220;2023-02-15T08:39:34;26.43;;;17.60;;
7657;SDS011;8462;53.156;8.220;2023-02-15T08:42:01;27.10;;;16.73;;
7657;SDS011;8462;53.156;8.220;2023-02-15T08:44:28;24.93;;;16.93;;
7657;SDS011;8462;53.156;8.220;2023-02-15T08:46:55;28.93;;;16.93;;
7657;SDS011;8462;53.156;8.220;2023-02-15T08:49:29;24.27;;;15.70;;
7657;SDS011;8462;53.156;8.220;2023-02-15T08:51:56;24.70;;;15.67;;
7657;SDS011;8462;53.156;8.220;2023-02-15T08:54:23;23.20;;;15.50;;
7657;SDS011;8462;53.156;8.220;2023-02-15T08:56:50;25.93;;;16.77;;
7657;SDS011;8462;53.156;8.220;2023-02-15T08:59:17;26.53;;;16.37;;
7657;SDS011;8462;53.156;8.220;2023-02-15T09:01:46;23.93;;;16.40;;
7657;SDS011;8462;53.156;8.220;2023-02-15T09:04:14;25.07;;;16.53;;
7657;SDS011;8462;53.156;8.220;2023-02-15T09:06:46;22.17;;;15.10;;
7657;SDS011;8462;53.156;8.220;2023-02-15T09:09:15;24.57;;;15.47;;
7657;SDS011;8462;53.156;8.220;2023-02-15T09:11:43;25.70;;;15.50;;
7657;SDS011;8462;53.156;8.220;2023-02-15T09:14:12;23.40;;;16.13;;
7657;SDS011;8462;53.156;8.220;2023-02-15T09:16:41;21.60;;;14.87;;
7657;SDS011;8462;53.156;8.220;2023-02-15T09:19:09;22.47;;;15.10;;
7657;SDS011;8462;53.156;8.220;2023-02-15T09:21:37;23.77;;;15.40;;
7657;SDS011;8462;53.156;8.220;2023-02-15T09:24:07;21.93;;;15.30;;
7657;SDS011;8462;53.156;8.220;2023-02-15T09:26:36;24.83;;;16.50;;
7657;SDS011;8462;53.156;8.220;2023-02-15T09:29:04;25.83;;;15.30;;
7657;SDS011;8462;53.156;8.220;2023-02-15T09:31:32;22.67;;;15.87;;
7657;SDS011;8462;53.156;8.220;2023-02-15T09:36:34;25.70;;;16.50;;
7657;SDS011;8462;53.156;8.220;2023-02-15T09:39:06;28.60;;;15.93;;
7657;SDS011;8462;53.156;8.220;2023-02-15T09:41:44;25.87;;;15.13;;
7657;SDS011;8462;53.156;8.220;2023-02-15T09:44:43;25.43;;;14.93;;
7657;SDS011;8462;53.156;8.220;2023-02-15T09:47:46;24.90;;;16.23;;
7657;SDS011;8462;53.156;8.220;2023-02-15T09:50:27;22.80;;;15.60;;
7657;SDS011;8462;53.156;8.220;2023-02-15T09:53:13;28.07;;;16.10;;
7657;SDS011;8462;53.156;8.220;2023-02-15T09:55:56;25.83;;;15.60;;
7657;SDS011;8462;53.156;8.220;2023-02-15T09:58:37;23.50;;;16.47;;
7657;SDS011;8462;53.156;8.220;2023-02-15T10:01:16;26.67;;;15.80;;
7657;SDS011;8462;53.156;8.220;2023-02-15T10:03:59;23.63;;;15.00;;
7657;SDS011;8462;53.156;8.220;2023-02-15T10:06:39;22.93;;;15.20;;
7657;SDS011;8462;53.156;8.220;2023-02-15T10:09:20;22.80;;;15.67;;
7657;SDS011;8462;53.156;8.220;2023-02-15T10:12:04;23.30;;;16.30;;
7657;SDS011;8462;53.156;8.220;2023-02-15T10:14:46;25.17;;;16.47;;
7657;SDS011;8462;53.156;8.220;2023-02-15T10:17:26;27.80;;;16.30;;
7657;SDS011;8462;53.156;8.220;2023-02-15T10:20:07;25.27;;;16.27;;
7657;SDS011;8462;53.156;8.220;2023-02-15T10:22:47;24.33;;;15.63;;
7657;SDS011;8462;53.156;8.220;2023-02-15T10:25:32;25.50;;;15.13;;
7657;SDS011;8462;53.156;8.220;2023-02-15T10:28:11;29.43;;;17.40;;
7657;SDS011;8462;53.156;8.220;2023-02-15T10:30:46;27.60;;;18.03;;
7657;SDS011;8462;53.156;8.220;2023-02-15T10:33:20;24.40;;;16.80;;
7657;SDS011;8462;53.156;8.220;2023-02-15T10:35:59;25.30;;;16.53;;
7657;SDS011;8462;53.156;8.220;2023-02-15T10:38:33;24.60;;;16.70;;
7657;SDS011;8462;53.156;8.220;2023-02-15T10:41:17;24.43;;;15.97;;
7657;SDS011;8462;53.156;8.220;2023-02-15T10:44:01;22.40;;;15.60;;
7657;SDS011;8462;53.156;8.220;2023-02-15T10:46:43;25.17;;;16.57;;
7657;SDS011;8462;53.156;8.220;2023-02-15T10:49:24;29.63;;;17.63;;
7657;SDS011;8462;53.156;8.220;2023-02-15T10:54:55;24.50;;;16.77;;
7657;SDS011;8462;53.156;8.220;2023-02-15T10:57:34;28.00;;;18.33;;
7657;SDS011;8462;53.156;8.220;2023-02-15T11:00:11;30.97;;;19.33;;
7657;SDS011;8462;53.156;8.220;2023-02-15T11:02:49;30.30;;;18.97;;
7657;SDS011;8462;53.156;8.220;2023-02-15T11:05:35;28.63;;;18.87;;
7657;SDS011;8462;53.156;8.220;2023-02-15T11:08:08;30.43;;;18.57;;
7657;SDS011;8462;53.156;8.220;2023-02-15T11:10:38;27.50;;;17.90;;
7657;SDS011;8462;53.156;8.220;2023-02-15T11:13:09;28.17;;;17.87;;
7657;SDS011;8462;53.156;8.220;2023-02-15T11:15:43;28.13;;;18.20;;
7657;SDS011;8462;53.156;8.220;2023-02-15T11:18:15;28.53;;;18.40;;
7657;SDS011;8462;53.156;8.220;2023-02-15T11:20:49;28.17;;;18.80;;
7657;SDS011;8462;53.156;8.220;2023-02-15T11:23:20;30.03;;;18.53;;
7657;SDS011;8462;53.156;8.220;2023-02-15T11:25:52;28.10;;;18.87;;
7657;SDS011;8462;53.156;8.220;2023-02-15T11:28:24;28.50;;;19.50;;
7657;SDS011;8462;53.156;8.220;2023-02-15T11:30:58;30.20;;;17.53;;
7657;SDS011;8462;53.156;8.220;2023-02-15T11:33:29;30.77;;;20.60;;
7657;SDS011;8462;53.156;8.220;2023-02-15T11:36:03;29.07;;;19.40;;
7657;SDS011;8462;53.156;8.220;2023-02-15T11:38:35;31.60;;;19.83;;
7657;SDS011;8462;53.156;8.220;2023-02-15T11:41:07;31.37;;;19.17;;
7657;SDS011;8462;53.156;8.220;2023-02-15T11:43:36;32.53;;;19.73;;
7657;SDS011;8462;53.156;8.220;2023-02-15T11:46:08;27.70;;;18.47;;
7657;SDS011;8462;53.156;8.220;2023-02-15T11:48:37;31.43;;;20.63;;
7657;SDS011;8462;53.156;8.220;2023-02-15T11:51:05;33.90;;;21.20;;
7657;SDS011;8462;53.156;8.220;2023-02-15T11:53:37;37.17;;;21.43;;
7657;SDS011;8462;53.156;8.220;2023-02-15T11:56:09;35.20;;;20.07;;
7657;SDS011;8462;53.156;8.220;2023-02-15T11:58:41;33.57;;;20.73;;
7657;SDS011;8462;53.156;8.220;2023-02-15T12:01:13;30.00;;;20.90;;
7657;SDS011;8462;53.156;8.220;2023-02-15T12:03:46;36.80;;;22.27;;
7657;SDS011;8462;53.156;8.220;2023-02-15T12:06:16;38.77;;;22.93;;
7657;SDS011;8462;53.156;8.220;2023-02-15T12:08:50;33.13;;;21.03;;
7657;SDS011;8462;53.156;8.220;2023-02-15T12:11:22;35.40;;;21.63;;
7657;SDS011;8462;53.156;8.220;2023-02-15T12:13:59;32.00;;;21.47;;
7657;SDS011;8462;53.156;8.220;2023-02-15T12:16:29;34.27;;;21.60;;
7657;SDS011;8462;53.156;8.220;2023-02-15T12:19:01;38.73;;;21.60;;
7657;SDS011;8462;53.156;8.220;2023-02-15T12:21:29;35.90;;;22.23;;
7657;SDS011;8462;53.156;8.220;2023-02-15T12:24:01;35.53;;;22.63;;
7657;SDS011;8462;53.156;8.220;2023-02-15T12:26:35;36.87;;;22.53;;
7657;SDS011;8462;53.156;8.220;2023-02-15T12:29:06;34.30;;;22.70;;
7657;SDS011;8462;53.156;8.220;2023-02-15T12:31:40;38.30;;;22.07;;
7657;SDS011;8462;53.156;8.220;2023-02-15T12:36:47;35.63;;;22.40;;
7657;SDS011;8462;53.156;8.220;2023-02-15T12:39:20;36.67;;;22.40;;
7657;SDS011;8462;53.156;8.220;2023-02-15T12:42:01;33.80;;;21.73;;
7657;SDS011;8462;53.156;8.220;2023-02-15T12:44:31;32.90;;;21.83;;
7657;SDS011;8462;53.156;8.220;2023-02-15T12:47:02;34.90;;;21.87;;
7657;SDS011;8462;53.156;8.220;2023-02-15T12:49:31;40.93;;;23.53;;
7657;SDS011;8462;53.156;8.220;2023-02-15T12:52:00;36.57;;;22.07;;
7657;SDS011;8462;53.156;8.220;2023-02-15T12:54:38;32.93;;;21.03;;
7657;SDS011;8462;53.156;8.220;2023-02-15T12:57:20;35.60;;;21.93;;
7657;SDS011;8462;53.156;8.220;2023-02-15T12:59:51;36.63;;;20.20;;
7657;SDS011;8462;53.156;8.220;2023-02-15T13:02:25;40.10;;;22.23;;
7657;SDS011;8462;53.156;8.220;2023-02-15T13:04:56;30.93;;;18.80;;
7657;SDS011;8462;53.156;8.220;2023-02-15T13:07:30;35.27;;;20.37;;
7657;SDS011;8462;53.156;8.220;2023-02-15T13:09:58;35.87;;;21.70;;
7657;SDS011;8462;53.156;8.220;2023-02-15T13:12:26;33.30;;;20.43;;
7657;SDS011;8462;53.156;8.220;2023-02-15T13:14:55;35.67;;;21.63;;
7657;SDS011;8462;53.156;8.220;2023-02-15T13:17:26;35.07;;;20.20;;
7657;SDS011;8462;53.156;8.220;2023-02-15T13:19:57;32.77;;;19.97;;
7657;SDS011;8462;53.156;8.220;2023-02-15T13:22:27;36.10;;;21.63;;
7657;SDS011;8462;53.156;8.220;2023-02-15T13:25:03;33.33;;;21.13;;
7657;SDS011;8462;53.156;8.220;2023-02-15T13:27:37;34.63;;;20.60;;
7657;SDS011;8462;53.156;8.220;2023-02-15T13:30:10;35.23;;;20.47;;
7657;SDS011;8462;53.156;8.220;2023-02-15T13:32:48;34.60;;;19.50;;
7657;SDS011;8462;53.156;8.220;2023-02-15T13:35:17;35.03;;;20.10;;
7657;SDS011;8462;53.156;8.220;2023-02-15T13:37:58;33.37;;;20.07;;
7657;SDS011;8462;53.156;8.220;2023-02-15T13:40:43;33.20;;;20.00;;
7657;SDS011;8462;53.156;8.220;2023-02-15T13:43:17;35.37;;;20.20;;
7657;SDS011;8462;53.156;8.220;2023-02-15T13:45:55;36.40;;;20.57;;
7657;SDS011;8462;53.156;8.220;2023-02-15T13:48:34;36.10;;;19.13;;
7657;SDS011;8462;53.156;8.220;2023-02-15T13:51:08;32.67;;;19.07;;
7657;SDS011;8462;53.156;8.220;2023-02-15T13:56:35;31.53;;;19.23;;
7657;SDS011;8462;53.156;8.220;2023-02-15T13:59:33;28.17;;;17.67;;
7657;SDS011;8462;53.156;8.220;2023-02-15T14:02:27;33.40;;;19.13;;
7657;SDS011;8462;53.156;8.220;2023-02-15T14:08:00;29.10;;;18.40;;
7657;SDS011;8462;53.156;8.220;2023-02-15T14:10:43;29.67;;;18.83;;
7657;SDS011;8462;53.156;8.220;2023-02-15T14:16:14;32.10;;;18.97;;
7657;SDS011;8462;53.156;8.220;2023-02-15T14:18:47;35.60;;;21.50;;
7657;SDS011;8462;53.156;8.220;2023-02-15T14:21:25;31.17;;;19.23;;
7657;SDS011;8462;53.156;8.220;2023-02-15T14:24:00;29.43;;;18.40;;
7657;SDS011;8462;53.156;8.220;2023-02-15T14:26:41;28.50;;;18.37;;
7657;SDS011;8462;53.156;8.220;2023-02-15T14:29:19;28.27;;;19.10;;
7657;SDS011;8462;53.156;8.220;2023-02-15T14:31:52;27.73;;;18.10;;
7657;SDS011;8462;53.156;8.220;2023-02-15T14:34:22;29.93;;;18.03;;
7657;SDS011;8462;53.156;8.220;2023-02-15T14:36:52;31.83;;;19.30;;
7657;SDS011;8462;53.156;8.220;2023-02-15T14:39:24;29.63;;;18.17;;
7657;SDS011;8462;53.156;8.220;2023-02-15T14:42:17;28.97;;;18.53;;
7657;SDS011;8462;53.156;8.220;2023-02-15T14:44:50;33.40;;;19.93;;
7657;SDS011;8462;53.156;8.220;2023-02-15T14:47:21;29.27;;;17.67;;
7657;SDS011;8462;53.156;8.220;2023-02-15T14:49:57;33.03;;;19.33;;
7657;SDS011;8462;53.156;8.220;2023-02-15T14:52:25;32.47;;;18.40;;
7657;SDS011;8462;53.156;8.220;2023-02-15T14:54:53;32.77;;;17.70;;
7657;SDS011;8462;53.156;8.220;2023-02-15T14:57:23;30.87;;;18.10;;
7657;SDS011;8462;53.156;8.220;2023-02-15T14:59:58;29.30;;;18.00;;
7657;SDS011;8462;53.156;8.220;2023-02-15T15:02:27;28.97;;;17.20;;
7657;SDS011;8462;53.156;8.220;2023-02-15T15:05:06;28.83;;;18.37;;
7657;SDS011;8462;53.156;8.220;2023-02-15T15:07:37;31.33;;;18.00;;
7657;SDS011;8462;53.156;8.220;2023-02-15T15:19:56;32.60;;;18.10;;
7657;SDS011;8462;53.156;8.220;2023-02-15T15:22:25;32.80;;;17.97;;
7657;SDS011;8462;53.156;8.220;2023-02-15T15:24:55;28.13;;;17.90;;
7657;SDS011;8462;53.156;8.220;2023-02-15T15:27:43;29.10;;;16.93;;
7657;SDS011;8462;53.156;8.220;2023-02-15T15:33:19;28.80;;;17.43;;
7657;SDS011;8462;53.156;8.220;2023-02-15T15:36:12;30.60;;;17.37;;
7657;SDS011;8462;53.156;8.220;2023-02-15T15:39:19;32.07;;;18.03;;
7657;SDS011;8462;53.156;8.220;2023-02-15T15:42:03;29.83;;;18.70;;
7657;SDS011;8462;53.156;8.220;2023-02-15T15:44:54;35.87;;;18.23;;
7657;SDS011;8462;53.156;8.220;2023-02-15T15:47:43;31.63;;;17.67;;
7657;SDS011;8462;53.156;8.220;2023-02-15T15:50:24;32.10;;;17.70;;
7657;SDS011;8462;53.156;8.220;2023-02-15T15:52:52;31.23;;;17.23;;
7657;SDS011;8462;53.156;8.220;2023-02-15T15:55:22;28.67;;;17.87;;